createdAt,value
2022-10-29T00:04:07.333Z,92.65
2022-10-29T00:09:12.188Z,93.05
2022-10-29T00:14:15.299Z,93.11
2022-10-29T00:19:19.766Z,93.77
2022-10-29T00:24:24.316Z,93.79
2022-10-29T00:29:27.368Z,93.93
2022-10-29T00:34:33.605Z,93.84
2022-10-29T00:39:37.232Z,94.27
2022-10-29T00:44:44.376Z,94.01
2022-10-29T00:49:52.475Z,94.08
2022-10-29T00:54:57.257Z,93.57
2022-10-29T01:00:00.558Z,93.70
2022-10-29T01:05:07.249Z,93.94
2022-10-29T01:10:11.624Z,94.13
2022-10-29T01:15:22.819Z,94.42
2022-10-29T01:20:58.254Z,95.19
2022-10-29T01:26:22.161Z,94.40
2022-10-29T01:31:35.180Z,94.49
2022-10-29T01:36:52.234Z,95.19
2022-10-29T01:42:03.815Z,95.73
2022-10-29T01:47:15.374Z,95.97
2022-10-29T01:52:22.334Z,95.99
2022-10-29T01:57:31.917Z,96.29
2022-10-29T02:02:49.548Z,96.16
2022-10-29T02:07:57.661Z,96.43
2022-10-29T02:13:01.504Z,96.59
2022-10-29T02:18:09.218Z,96.80
2022-10-29T02:23:12.505Z,96.90
2022-10-29T02:28:15.637Z,97.13
2022-10-29T02:33:21.346Z,97.14
2022-10-29T02:38:24.482Z,97.07
2022-10-29T02:43:27.465Z,97.34
2022-10-29T02:48:31.849Z,97.49
2022-10-29T02:53:34.853Z,98.10
2022-10-29T02:58:38.214Z,98.04
2022-10-29T03:03:42.813Z,98.27
2022-10-29T03:08:47.053Z,98.61
2022-10-29T03:13:50.111Z,98.64
2022-10-29T03:18:54.691Z,99.06
2022-10-29T03:23:57.747Z,99.57
2022-10-29T03:29:01.203Z,99.43
2022-10-29T03:34:05.558Z,100.00
2022-10-29T03:39:09.067Z,100.00
2022-10-29T03:44:12.157Z,100.00
2022-10-29T03:49:16.692Z,100.00
2022-10-29T03:54:20.054Z,100.00
2022-10-29T03:59:22.975Z,100.00
2022-10-29T04:04:27.412Z,100.00
2022-10-29T04:09:30.893Z,100.00
2022-10-29T04:14:34.050Z,100.00
2022-10-29T04:19:38.866Z,100.00
2022-10-29T04:27:07.697Z,100.00
2022-10-29T04:30:06.043Z,100.00
2022-10-29T04:35:10.781Z,100.00
2022-10-29T04:40:14.248Z,100.00
2022-10-29T04:45:17.228Z,100.00
2022-10-29T04:50:23.321Z,100.00
2022-10-29T04:55:26.497Z,100.00
2022-10-29T05:00:29.887Z,100.00
2022-10-29T05:05:34.411Z,100.00
2022-10-29T05:10:39.603Z,100.00
2022-10-29T05:15:43.288Z,100.00
2022-10-29T05:20:47.916Z,100.00
2022-10-29T05:25:52.774Z,100.00
2022-10-29T05:30:56.087Z,100.00
2022-10-29T05:36:01.990Z,100.00
2022-10-29T05:41:05.273Z,100.00
2022-10-29T05:46:08.280Z,100.00
2022-10-29T05:51:12.851Z,100.00
2022-10-29T05:56:16.415Z,100.00
2022-10-29T06:01:20.402Z,100.00
2022-10-29T06:06:25.408Z,100.00
2022-10-29T06:11:30.967Z,100.00
2022-10-29T06:16:34.225Z,100.00
2022-10-29T06:21:39.113Z,100.00
2022-10-29T06:26:45.248Z,100.00
2022-10-29T06:31:48.322Z,100.00
2022-10-29T06:36:52.759Z,100.00
2022-10-29T06:41:56.070Z,100.00
2022-10-29T06:46:59.359Z,100.00
2022-10-29T06:52:03.901Z,100.00
2022-10-29T06:57:09.680Z,100.00
2022-10-29T07:02:16.460Z,100.00
2022-10-29T07:07:20.922Z,100.00
2022-10-29T07:12:26.035Z,100.00
2022-10-29T07:17:29.110Z,100.00
2022-10-29T07:22:34.885Z,100.00
2022-10-29T07:27:38.056Z,100.00
2022-10-29T07:32:41.037Z,100.00
2022-10-29T07:37:45.645Z,100.00
2022-10-29T07:42:53.539Z,100.00
2022-10-29T07:48:02.935Z,100.00
2022-10-29T07:53:09.375Z,100.00
2022-10-29T07:58:13.791Z,98.76
2022-10-29T08:03:17.698Z,97.12
2022-10-29T08:08:23.267Z,95.82
2022-10-29T08:13:31.352Z,95.24
2022-10-29T08:18:34.924Z,94.10
2022-10-29T08:23:52.527Z,93.74
2022-10-29T08:28:59.272Z,92.99
2022-10-29T08:34:11.065Z,92.19
2022-10-29T08:39:23.141Z,91.64
2022-10-29T08:44:55.189Z,90.52
2022-10-29T08:50:10.551Z,89.71
2022-10-29T08:55:27.905Z,89.50
2022-10-29T09:00:37.694Z,89.63
2022-10-29T09:05:55.605Z,88.68
2022-10-29T09:11:14.110Z,86.69
2022-10-29T09:16:50.032Z,86.38
2022-10-29T09:22:06.475Z,85.60
2022-10-29T09:27:20.610Z,85.35
2022-10-29T09:32:29.351Z,85.12
2022-10-29T09:37:43.576Z,84.13
2022-10-29T09:42:50.080Z,83.88
2022-10-29T09:48:09.716Z,83.76
2022-10-29T09:53:20.720Z,83.65
2022-10-29T09:58:29.650Z,84.41
2022-10-29T10:03:42.982Z,84.53
2022-10-29T10:09:16.089Z,83.84
2022-10-29T10:14:34.490Z,82.64
2022-10-29T10:19:53.178Z,82.71
2022-10-29T10:24:58.875Z,81.93
2022-10-29T10:30:18.803Z,80.53
2022-10-29T10:35:30.557Z,80.35
2022-10-29T10:40:36.969Z,81.38
2022-10-29T10:45:56.507Z,81.91
2022-10-29T10:51:28.851Z,79.78
2022-10-29T10:56:46.375Z,81.70
2022-10-29T11:02:01.426Z,82.98
2022-10-29T11:07:19.288Z,81.05
2022-10-29T11:12:32.536Z,78.71
2022-10-29T11:17:52.938Z,79.10
2022-10-29T11:23:10.811Z,78.25
2022-10-29T11:28:26.412Z,79.04
2022-10-29T11:33:44.462Z,77.47
2022-10-29T11:38:56.389Z,77.37
2022-10-29T11:44:00.605Z,77.76
2022-10-29T11:49:20.914Z,78.96
2022-10-29T11:54:44.809Z,77.85
2022-10-29T12:00:05.603Z,79.15
2022-10-29T12:05:23.072Z,78.65
2022-10-29T12:10:48.096Z,78.37
2022-10-29T12:16:06.652Z,78.16
2022-10-29T12:21:36.700Z,78.05
2022-10-29T12:26:54.349Z,77.58
2022-10-29T12:32:11.686Z,77.52
2022-10-29T12:37:30.927Z,77.21
2022-10-29T12:42:41.158Z,77.29
2022-10-29T12:48:10.732Z,77.16
2022-10-29T12:53:35.592Z,76.84
2022-10-29T12:59:15.822Z,77.00
2022-10-29T13:04:33.268Z,76.57
2022-10-29T13:09:48.319Z,76.38
2022-10-29T13:15:04.816Z,76.41
2022-10-29T13:20:26.557Z,76.17
2022-10-29T13:25:57.905Z,76.95
2022-10-29T13:31:37.200Z,77.25
2022-10-29T13:36:41.987Z,77.53
2022-10-29T13:41:55.104Z,77.81
2022-10-29T13:47:05.959Z,78.28
2022-10-29T13:52:20.863Z,78.25
2022-10-29T14:02:57.883Z,79.12
2022-10-29T14:08:09.357Z,78.88
2022-10-29T14:13:32.705Z,80.94
2022-10-29T14:18:53.850Z,80.86
2022-10-29T14:24:03.630Z,80.36
2022-10-29T14:29:22.242Z,81.11
2022-10-29T14:34:37.869Z,83.18
2022-10-29T14:40:02.871Z,84.41
2022-10-29T14:45:30.939Z,84.57
2022-10-29T14:50:41.760Z,85.52
2022-10-29T14:55:54.779Z,84.52
2022-10-29T15:01:17.118Z,83.34
2022-10-29T15:06:27.821Z,84.11
2022-10-29T15:11:43.676Z,83.71
2022-10-29T15:16:58.036Z,85.14
2022-10-29T15:22:13.014Z,85.08
2022-10-29T15:27:18.240Z,86.57
2022-10-29T15:32:33.749Z,87.75
2022-10-29T15:37:55.542Z,88.89
2022-10-29T15:43:30.373Z,88.90
2022-10-29T15:48:51.510Z,89.77
2022-10-29T15:54:01.485Z,89.42
2022-10-29T15:59:13.639Z,90.27
2022-10-29T16:04:23.894Z,90.85
2022-10-29T16:09:32.163Z,91.23
2022-10-29T16:14:43.303Z,91.77
2022-10-29T16:19:51.535Z,92.08
2022-10-29T16:24:57.548Z,92.68
2022-10-29T16:30:10.686Z,92.81
2022-10-29T16:35:33.095Z,93.34
2022-10-29T16:40:44.284Z,93.63
2022-10-29T16:46:05.657Z,94.60
2022-10-29T16:51:19.437Z,95.08
2022-10-29T16:56:42.745Z,95.76
2022-10-29T17:01:57.500Z,95.54
2022-10-29T17:07:12.389Z,96.00
2022-10-29T17:12:25.048Z,96.88
2022-10-29T17:17:46.363Z,97.34
2022-10-29T17:23:07.674Z,97.95
2022-10-29T17:28:19.902Z,98.04
2022-10-29T17:33:30.035Z,98.46
2022-10-29T17:38:54.892Z,98.90
2022-10-29T17:44:37.972Z,100.00
2022-10-29T17:49:55.314Z,99.53
2022-10-29T17:55:20.624Z,100.00
2022-10-29T18:00:32.546Z,100.00
2022-10-29T18:05:50.913Z,100.00
2022-10-29T18:11:09.391Z,100.00
2022-10-29T18:16:24.174Z,100.00
2022-10-29T18:21:49.502Z,100.00
2022-10-29T18:27:17.465Z,100.00
2022-10-29T18:32:32.461Z,100.00
2022-10-29T18:37:41.756Z,100.00
2022-10-29T18:42:47.866Z,100.00
2022-10-29T18:47:58.574Z,100.00
2022-10-29T18:58:46.029Z,100.00
2022-10-29T19:03:58.272Z,100.00
2022-10-29T19:09:24.846Z,100.00
2022-10-29T19:14:33.771Z,100.00
2022-10-29T19:19:54.529Z,100.00
2022-10-29T19:24:59.915Z,100.00
2022-10-29T19:30:10.058Z,100.00
2022-10-29T19:35:16.363Z,100.00
2022-10-29T19:40:35.896Z,100.00
2022-10-29T19:45:52.372Z,100.00
2022-10-29T19:51:00.973Z,100.00
2022-10-29T19:56:07.918Z,100.00
2022-10-29T20:01:17.807Z,100.00
2022-10-29T20:06:25.795Z,100.00
2022-10-29T20:11:33.074Z,100.00
2022-10-29T20:16:46.687Z,100.00
2022-10-29T20:22:11.496Z,100.00
2022-10-29T20:27:33.674Z,100.00
2022-10-29T20:32:46.774Z,100.00
2022-10-29T20:38:02.502Z,100.00
2022-10-29T20:43:30.329Z,100.00
2022-10-29T20:49:03.466Z,100.00
2022-10-29T20:54:15.101Z,100.00
2022-10-29T20:59:39.656Z,100.00
2022-10-29T21:04:53.000Z,100.00
2022-10-29T21:10:09.213Z,100.00
2022-10-29T21:15:17.880Z,100.00
2022-10-29T21:20:31.679Z,100.00
2022-10-29T21:25:44.820Z,100.00
2022-10-29T21:30:56.792Z,100.00
2022-10-29T21:36:09.924Z,100.00
2022-10-29T21:41:22.726Z,99.68
2022-10-29T21:46:28.205Z,99.22
2022-10-29T21:51:37.681Z,98.89
2022-10-29T21:56:53.605Z,98.69
2022-10-29T22:02:12.363Z,98.52
2022-10-29T22:07:27.331Z,97.75
2022-10-29T22:12:44.154Z,97.44
2022-10-29T22:17:51.667Z,97.46
2022-10-29T22:23:10.408Z,97.32
2022-10-29T22:28:24.568Z,96.74
2022-10-29T22:33:40.732Z,95.93
2022-10-29T22:38:47.071Z,95.50
2022-10-29T22:43:53.113Z,95.30
2022-10-29T22:49:04.601Z,95.52
2022-10-29T22:54:16.767Z,95.15
2022-10-29T22:59:21.138Z,95.08
2022-10-29T23:04:37.243Z,94.94
2022-10-29T23:09:52.227Z,94.85
2022-10-29T23:14:58.664Z,95.02
2022-10-29T23:20:10.457Z,95.02
2022-10-29T23:30:41.039Z,95.41
2022-10-29T23:35:48.184Z,95.66
2022-10-29T23:41:27.958Z,95.73
2022-10-29T23:46:34.557Z,96.35
2022-10-29T23:51:39.986Z,96.66
2022-10-29T23:56:48.559Z,97.42
